sensor_id;sensor_type;location;lat;lon;timestamp;temperature;humidity
39019;DHT22;24786;51.984;5.872;2022-09-17T00:00:39;11.60;99.90
39019;DHT22;24786;51.984;5.872;2022-09-17T00:03:06;11.60;99.90
39019;DHT22;24786;51.984;5.872;2022-09-17T00:05:32;11.60;99.90
39019;DHT22;24786;51.984;5.872;2022-09-17T00:07:57;11.60;99.90
39019;DHT22;24786;51.984;5.872;2022-09-17T00:10:23;11.60;99.90
39019;DHT22;24786;51.984;5.872;2022-09-17T00:12:49;11.70;99.90
39019;DHT22;24786;51.984;5.872;2022-09-17T00:15:15;11.70;99.90
39019;DHT22;24786;51.984;5.872;2022-09-17T00:17:41;11.60;99.90
39019;DHT22;24786;51.984;5.872;2022-09-17T00:20:08;11.60;99.90
39019;DHT22;24786;51.984;5.872;2022-09-17T00:22:37;11.60;99.90
39019;DHT22;24786;51.984;5.872;2022-09-17T00:25:04;11.50;99.90
39019;DHT22;24786;51.984;5.872;2022-09-17T00:27:30;11.50;99.90
39019;DHT22;24786;51.984;5.872;2022-09-17T00:29:56;11.50;99.90
39019;DHT22;24786;51.984;5.872;2022-09-17T00:32:21;11.50;99.90
39019;DHT22;24786;51.984;5.872;2022-09-17T00:34:48;11.50;99.90
39019;DHT22;24786;51.984;5.872;2022-09-17T00:37:17;11.50;99.90
39019;DHT22;24786;51.984;5.872;2022-09-17T00:39:42;11.50;99.90
39019;DHT22;24786;51.984;5.872;2022-09-17T00:42:11;11.50;99.90
39019;DHT22;24786;51.984;5.872;2022-09-17T00:44:44;11.50;99.90
39019;DHT22;24786;51.984;5.872;2022-09-17T00:49:46;11.50;99.90
39019;DHT22;24786;51.984;5.872;2022-09-17T00:52:16;11.40;99.90
39019;DHT22;24786;51.984;5.872;2022-09-17T00:54:47;11.50;99.90
39019;DHT22;24786;51.984;5.872;2022-09-17T00:57:14;11.50;99.90
39019;DHT22;24786;51.984;5.872;2022-09-17T00:59:40;11.40;99.90
39019;DHT22;24786;51.984;5.872;2022-09-17T01:02:06;11.40;99.90
39019;DHT22;24786;51.984;5.872;2022-09-17T01:04:31;11.40;99.90
39019;DHT22;24786;51.984;5.872;2022-09-17T01:09:55;11.40;99.90
39019;DHT22;24786;51.984;5.872;2022-09-17T01:12:41;11.40;99.90
39019;DHT22;24786;51.984;5.872;2022-09-17T01:15:23;11.40;99.90
39019;DHT22;24786;51.984;5.872;2022-09-17T01:21:53;11.40;99.90
39019;DHT22;24786;51.984;5.872;2022-09-17T01:32:31;11.30;99.90
39019;DHT22;24786;51.984;5.872;2022-09-17T01:35:27;11.30;99.90
39019;DHT22;24786;51.984;5.872;2022-09-17T01:38:06;11.30;99.90
39019;DHT22;24786;51.984;5.872;2022-09-17T01:40:46;11.20;99.90
39019;DHT22;24786;51.984;5.872;2022-09-17T01:43:25;11.20;99.90
39019;DHT22;24786;51.984;5.872;2022-09-17T01:45:56;11.10;99.90
39019;DHT22;24786;51.984;5.872;2022-09-17T01:48:37;11.10;99.90
39019;DHT22;24786;51.984;5.872;2022-09-17T01:51:05;11.00;99.90
39019;DHT22;24786;51.984;5.872;2022-09-17T01:53:55;11.00;99.90
39019;DHT22;24786;51.984;5.872;2022-09-17T01:56:24;11.00;99.90
39019;DHT22;24786;51.984;5.872;2022-09-17T01:59:42;10.90;99.90
39019;DHT22;24786;51.984;5.872;2022-09-17T02:01:43;10.90;99.90
39019;DHT22;24786;51.984;5.872;2022-09-17T02:04:32;10.80;99.90
39019;DHT22;24786;51.984;5.872;2022-09-17T02:07:12;10.80;99.90
39019;DHT22;24786;51.984;5.872;2022-09-17T02:09:44;10.80;99.90
39019;DHT22;24786;51.984;5.872;2022-09-17T02:12:17;10.90;99.90
39019;DHT22;24786;51.984;5.872;2022-09-17T02:14:53;10.80;99.90
39019;DHT22;24786;51.984;5.872;2022-09-17T02:17:53;10.80;99.90
39019;DHT22;24786;51.984;5.872;2022-09-17T02:20:25;10.80;99.90
39019;DHT22;24786;51.984;5.872;2022-09-17T02:22:56;10.80;99.90
39019;DHT22;24786;51.984;5.872;2022-09-17T02:25:38;10.80;99.90
39019;DHT22;24786;51.984;5.872;2022-09-17T02:30:34;10.80;99.90
39019;DHT22;24786;51.984;5.872;2022-09-17T02:33:04;10.70;99.90
39019;DHT22;24786;51.984;5.872;2022-09-17T02:35:31;10.70;99.90
39019;DHT22;24786;51.984;5.872;2022-09-17T02:37:58;10.70;99.90
39019;DHT22;24786;51.984;5.872;2022-09-17T02:40:26;10.60;99.90
39019;DHT22;24786;51.984;5.872;2022-09-17T02:43:32;10.60;99.90
39019;DHT22;24786;51.984;5.872;2022-09-17T02:46:03;10.60;99.90
39019;DHT22;24786;51.984;5.872;2022-09-17T02:48:37;10.60;99.90
39019;DHT22;24786;51.984;5.872;2022-09-17T02:51:23;10.50;99.90
39019;DHT22;24786;51.984;5.872;2022-09-17T02:54:06;10.50;99.90
39019;DHT22;24786;51.984;5.872;2022-09-17T02:56:45;10.50;99.90
39019;DHT22;24786;51.984;5.872;2022-09-17T02:59:23;10.40;99.90
39019;DHT22;24786;51.984;5.872;2022-09-17T03:02:02;10.40;99.90
39019;DHT22;24786;51.984;5.872;2022-09-17T03:04:28;10.40;99.90
39019;DHT22;24786;51.984;5.872;2022-09-17T03:06:54;10.40;99.90
39019;DHT22;24786;51.984;5.872;2022-09-17T03:09:21;10.30;99.90
39019;DHT22;24786;51.984;5.872;2022-09-17T03:11:46;10.30;99.90
39019;DHT22;24786;51.984;5.872;2022-09-17T03:14:12;10.30;99.90
39019;DHT22;24786;51.984;5.872;2022-09-17T03:16:38;10.30;99.90
39019;DHT22;24786;51.984;5.872;2022-09-17T03:19:03;10.30;99.90
39019;DHT22;24786;51.984;5.872;2022-09-17T03:21:29;10.30;99.90
39019;DHT22;24786;51.984;5.872;2022-09-17T03:23:55;10.20;99.90
39019;DHT22;24786;51.984;5.872;2022-09-17T03:26:21;10.20;99.90
39019;DHT22;24786;51.984;5.872;2022-09-17T03:28:47;10.20;99.90
39019;DHT22;24786;51.984;5.872;2022-09-17T03:31:12;10.20;99.90
39019;DHT22;24786;51.984;5.872;2022-09-17T03:33:38;10.10;99.90
39019;DHT22;24786;51.984;5.872;2022-09-17T03:36:03;10.10;99.90
39019;DHT22;24786;51.984;5.872;2022-09-17T03:38:29;10.10;99.90
39019;DHT22;24786;51.984;5.872;2022-09-17T03:41:03;10.00;99.90
39019;DHT22;24786;51.984;5.872;2022-09-17T03:43:29;10.00;99.90
39019;DHT22;24786;51.984;5.872;2022-09-17T03:45:55;9.90;99.90
39019;DHT22;24786;51.984;5.872;2022-09-17T03:48:21;10.00;99.90
39019;DHT22;24786;51.984;5.872;2022-09-17T03:50:46;10.00;99.90
39019;DHT22;24786;51.984;5.872;2022-09-17T03:53:12;10.00;99.90
39019;DHT22;24786;51.984;5.872;2022-09-17T03:55:38;10.00;99.90
39019;DHT22;24786;51.984;5.872;2022-09-17T03:58:03;9.90;99.90
39019;DHT22;24786;51.984;5.872;2022-09-17T04:00:29;9.90;99.90
39019;DHT22;24786;51.984;5.872;2022-09-17T04:02:55;9.90;99.90
39019;DHT22;24786;51.984;5.872;2022-09-17T04:05:20;9.90;99.90
39019;DHT22;24786;51.984;5.872;2022-09-17T04:07:46;9.90;99.90
39019;DHT22;24786;51.984;5.872;2022-09-17T04:10:11;9.90;99.90
39019;DHT22;24786;51.984;5.872;2022-09-17T04:12:38;9.80;99.90
39019;DHT22;24786;51.984;5.872;2022-09-17T04:15:04;9.80;99.90
39019;DHT22;24786;51.984;5.872;2022-09-17T04:17:31;9.80;99.90
39019;DHT22;24786;51.984;5.872;2022-09-17T04:19:56;9.80;99.90
39019;DHT22;24786;51.984;5.872;2022-09-17T04:22:23;9.80;99.90
39019;DHT22;24786;51.984;5.872;2022-09-17T04:24:48;9.80;99.90
39019;DHT22;24786;51.984;5.872;2022-09-17T04:27:14;9.90;99.90
39019;DHT22;24786;51.984;5.872;2022-09-17T04:29:40;9.80;99.90
39019;DHT22;24786;51.984;5.872;2022-09-17T04:32:05;9.80;99.90
39019;DHT22;24786;51.984;5.872;2022-09-17T04:34:31;9.70;99.90
39019;DHT22;24786;51.984;5.872;2022-09-17T04:36:57;9.70;99.90
39019;DHT22;24786;51.984;5.872;2022-09-17T04:39:23;9.70;99.90
39019;DHT22;24786;51.984;5.872;2022-09-17T04:41:48;9.70;99.90
39019;DHT22;24786;51.984;5.872;2022-09-17T04:44:14;9.60;99.90
39019;DHT22;24786;51.984;5.872;2022-09-17T04:46:39;9.60;99.90
39019;DHT22;24786;51.984;5.872;2022-09-17T04:49:05;9.60;99.90
39019;DHT22;24786;51.984;5.872;2022-09-17T04:51:30;9.60;99.90
39019;DHT22;24786;51.984;5.872;2022-09-17T04:53:56;9.60;99.90
39019;DHT22;24786;51.984;5.872;2022-09-17T04:56:21;9.50;99.90
39019;DHT22;24786;51.984;5.872;2022-09-17T04:58:47;9.50;99.90
39019;DHT22;24786;51.984;5.872;2022-09-17T05:01:13;9.50;99.90
39019;DHT22;24786;51.984;5.872;2022-09-17T05:03:39;9.50;99.90
39019;DHT22;24786;51.984;5.872;2022-09-17T05:06:05;9.50;99.90
39019;DHT22;24786;51.984;5.872;2022-09-17T05:08:30;9.40;99.90
39019;DHT22;24786;51.984;5.872;2022-09-17T05:10:56;9.40;99.90
39019;DHT22;24786;51.984;5.872;2022-09-17T05:13:22;9.40;99.90
39019;DHT22;24786;51.984;5.872;2022-09-17T05:15:47;9.40;99.90
39019;DHT22;24786;51.984;5.872;2022-09-17T05:18:13;9.40;99.90
39019;DHT22;24786;51.984;5.872;2022-09-17T05:20:39;9.40;99.90
39019;DHT22;24786;51.984;5.872;2022-09-17T05:23:04;9.40;99.90
39019;DHT22;24786;51.984;5.872;2022-09-17T05:25:30;9.40;99.90
39019;DHT22;24786;51.984;5.872;2022-09-17T05:27:56;9.40;99.90
39019;DHT22;24786;51.984;5.872;2022-09-17T05:30:22;9.40;99.90
39019;DHT22;24786;51.984;5.872;2022-09-17T05:32:48;9.30;99.90
39019;DHT22;24786;51.984;5.872;2022-09-17T05:35:14;9.40;99.90
39019;DHT22;24786;51.984;5.872;2022-09-17T05:37:39;9.40;99.90
39019;DHT22;24786;51.984;5.872;2022-09-17T05:40:06;9.30;99.90
39019;DHT22;24786;51.984;5.872;2022-09-17T05:42:32;9.30;99.90
39019;DHT22;24786;51.984;5.872;2022-09-17T05:44:58;9.40;99.90
39019;DHT22;24786;51.984;5.872;2022-09-17T05:47:24;9.30;99.90
39019;DHT22;24786;51.984;5.872;2022-09-17T05:49:49;9.40;99.90
39019;DHT22;24786;51.984;5.872;2022-09-17T05:52:15;9.40;99.90
39019;DHT22;24786;51.984;5.872;2022-09-17T05:54:40;9.40;99.90
39019;DHT22;24786;51.984;5.872;2022-09-17T05:57:06;9.40;99.90
39019;DHT22;24786;51.984;5.872;2022-09-17T05:59:32;9.40;99.90
39019;DHT22;24786;51.984;5.872;2022-09-17T06:01:57;9.40;99.90
39019;DHT22;24786;51.984;5.872;2022-09-17T06:04:23;9.40;99.90
39019;DHT22;24786;51.984;5.872;2022-09-17T06:06:49;9.40;99.90
39019;DHT22;24786;51.984;5.872;2022-09-17T06:09:14;9.30;99.90
39019;DHT22;24786;51.984;5.872;2022-09-17T06:11:40;9.30;99.90
39019;DHT22;24786;51.984;5.872;2022-09-17T06:14:07;9.30;99.90
39019;DHT22;24786;51.984;5.872;2022-09-17T06:16:32;9.30;99.90
39019;DHT22;24786;51.984;5.872;2022-09-17T06:18:58;9.30;99.90
39019;DHT22;24786;51.984;5.872;2022-09-17T06:21:23;9.20;99.90
39019;DHT22;24786;51.984;5.872;2022-09-17T06:23:49;9.30;99.90
39019;DHT22;24786;51.984;5.872;2022-09-17T06:26:15;9.40;99.90
39019;DHT22;24786;51.984;5.872;2022-09-17T06:28:41;9.40;99.90
39019;DHT22;24786;51.984;5.872;2022-09-17T06:31:09;9.50;99.90
39019;DHT22;24786;51.984;5.872;2022-09-17T06:33:35;9.60;99.90
39019;DHT22;24786;51.984;5.872;2022-09-17T06:36:11;9.60;99.90
39019;DHT22;24786;51.984;5.872;2022-09-17T06:38:36;9.70;99.90
39019;DHT22;24786;51.984;5.872;2022-09-17T06:41:05;9.70;99.90
39019;DHT22;24786;51.984;5.872;2022-09-17T06:43:31;9.80;99.90
39019;DHT22;24786;51.984;5.872;2022-09-17T06:46:06;9.90;99.90
39019;DHT22;24786;51.984;5.872;2022-09-17T06:48:34;9.90;99.90
39019;DHT22;24786;51.984;5.872;2022-09-17T06:51:12;10.00;99.90
39019;DHT22;24786;51.984;5.872;2022-09-17T06:53:39;10.10;99.90
39019;DHT22;24786;51.984;5.872;2022-09-17T06:56:06;10.10;99.90
39019;DHT22;24786;51.984;5.872;2022-09-17T06:58:45;10.20;99.90
39019;DHT22;24786;51.984;5.872;2022-09-17T07:01:29;10.40;99.90
39019;DHT22;24786;51.984;5.872;2022-09-17T07:04:42;10.40;99.90
39019;DHT22;24786;51.984;5.872;2022-09-17T07:07:28;10.50;99.90
39019;DHT22;24786;51.984;5.872;2022-09-17T07:10:07;10.60;99.90
39019;DHT22;24786;51.984;5.872;2022-09-17T07:12:32;10.70;99.90
39019;DHT22;24786;51.984;5.872;2022-09-17T07:14:58;10.70;99.90
39019;DHT22;24786;51.984;5.872;2022-09-17T07:17:24;10.80;99.90
39019;DHT22;24786;51.984;5.872;2022-09-17T07:19:51;10.90;99.90
39019;DHT22;24786;51.984;5.872;2022-09-17T07:22:33;10.90;99.90
39019;DHT22;24786;51.984;5.872;2022-09-17T07:24:58;11.10;99.90
39019;DHT22;24786;51.984;5.872;2022-09-17T07:27:38;11.20;99.90
39019;DHT22;24786;51.984;5.872;2022-09-17T07:30:09;11.20;99.90
39019;DHT22;24786;51.984;5.872;2022-09-17T07:32:46;11.30;99.90
39019;DHT22;24786;51.984;5.872;2022-09-17T07:35:12;11.40;99.90
39019;DHT22;24786;51.984;5.872;2022-09-17T07:37:38;11.40;99.90
39019;DHT22;24786;51.984;5.872;2022-09-17T07:40:05;11.50;99.90
39019;DHT22;24786;51.984;5.872;2022-09-17T07:42:40;11.50;99.90
39019;DHT22;24786;51.984;5.872;2022-09-17T07:45:18;11.70;99.90
39019;DHT22;24786;51.984;5.872;2022-09-17T07:47:43;11.80;99.90
39019;DHT22;24786;51.984;5.872;2022-09-17T07:50:10;11.80;99.90
39019;DHT22;24786;51.984;5.872;2022-09-17T07:52:35;11.90;99.90
39019;DHT22;24786;51.984;5.872;2022-09-17T07:55:01;11.90;99.90
39019;DHT22;24786;51.984;5.872;2022-09-17T07:57:42;12.00;99.90
39019;DHT22;24786;51.984;5.872;2022-09-17T08:00:07;12.10;99.90
39019;DHT22;24786;51.984;5.872;2022-09-17T08:02:58;12.10;99.90
39019;DHT22;24786;51.984;5.872;2022-09-17T08:05:33;12.10;99.90
39019;DHT22;24786;51.984;5.872;2022-09-17T08:07:59;12.30;99.90
39019;DHT22;24786;51.984;5.872;2022-09-17T08:10:34;12.30;99.90
39019;DHT22;24786;51.984;5.872;2022-09-17T08:13:17;12.40;99.90
39019;DHT22;24786;51.984;5.872;2022-09-17T08:15:43;12.50;99.90
39019;DHT22;24786;51.984;5.872;2022-09-17T08:18:18;12.60;99.90
39019;DHT22;24786;51.984;5.872;2022-09-17T08:20:44;12.70;99.90
39019;DHT22;24786;51.984;5.872;2022-09-17T08:23:09;12.80;99.90
39019;DHT22;24786;51.984;5.872;2022-09-17T08:26:14;12.80;99.90
39019;DHT22;24786;51.984;5.872;2022-09-17T08:28:58;13.00;99.90
39019;DHT22;24786;51.984;5.872;2022-09-17T08:31:25;13.00;99.90
39019;DHT22;24786;51.984;5.872;2022-09-17T08:33:51;13.10;99.90
39019;DHT22;24786;51.984;5.872;2022-09-17T08:36:29;13.20;99.90
39019;DHT22;24786;51.984;5.872;2022-09-17T08:39:12;13.30;99.90
39019;DHT22;24786;51.984;5.872;2022-09-17T08:44:43;13.40;99.90
39019;DHT22;24786;51.984;5.872;2022-09-17T08:50:14;13.50;99.90
39019;DHT22;24786;51.984;5.872;2022-09-17T09:01:56;13.70;99.90
39019;DHT22;24786;51.984;5.872;2022-09-17T09:04:51;13.70;99.90
39019;DHT22;24786;51.984;5.872;2022-09-17T09:07:35;13.70;99.90
39019;DHT22;24786;51.984;5.872;2022-09-17T09:10:18;13.70;99.90
39019;DHT22;24786;51.984;5.872;2022-09-17T09:12:50;13.70;99.90
39019;DHT22;24786;51.984;5.872;2022-09-17T09:21:11;13.90;99.90
39019;DHT22;24786;51.984;5.872;2022-09-17T09:26:38;13.90;99.90
39019;DHT22;24786;51.984;5.872;2022-09-17T09:29:18;14.00;99.90
39019;DHT22;24786;51.984;5.872;2022-09-17T09:35:11;14.10;99.90
39019;DHT22;24786;51.984;5.872;2022-09-17T09:37:40;14.20;99.90
39019;DHT22;24786;51.984;5.872;2022-09-17T09:42:51;14.30;99.90
39019;DHT22;24786;51.984;5.872;2022-09-17T09:58:58;14.90;99.30
39019;DHT22;24786;51.984;5.872;2022-09-17T10:01:27;15.00;99.10
39019;DHT22;24786;51.984;5.872;2022-09-17T10:03:53;15.20;99.00
39019;DHT22;24786;51.984;5.872;2022-09-17T10:06:22;15.20;98.90
39019;DHT22;24786;51.984;5.872;2022-09-17T10:11:22;14.90;99.10
39019;DHT22;24786;51.984;5.872;2022-09-17T10:13:48;14.70;99.60
39019;DHT22;24786;51.984;5.872;2022-09-17T10:16:18;14.60;99.90
39019;DHT22;24786;51.984;5.872;2022-09-17T10:18:45;14.50;99.90
39019;DHT22;24786;51.984;5.872;2022-09-17T10:24:23;14.40;99.90
39019;DHT22;24786;51.984;5.872;2022-09-17T10:26:50;14.30;99.90
39019;DHT22;24786;51.984;5.872;2022-09-17T10:32:19;14.20;99.90
39019;DHT22;24786;51.984;5.872;2022-09-17T10:35:04;14.50;99.90
39019;DHT22;24786;51.984;5.872;2022-09-17T10:37:45;14.60;99.90
39019;DHT22;24786;51.984;5.872;2022-09-17T10:40:27;14.60;99.90
39019;DHT22;24786;51.984;5.872;2022-09-17T10:45:42;14.30;99.90
39019;DHT22;24786;51.984;5.872;2022-09-17T10:48:15;14.00;99.90
39019;DHT22;24786;51.984;5.872;2022-09-17T10:50:56;13.60;99.90
39019;DHT22;24786;51.984;5.872;2022-09-17T10:53:23;13.30;99.90
39019;DHT22;24786;51.984;5.872;2022-09-17T10:57:01;13.30;99.90
39019;DHT22;24786;51.984;5.872;2022-09-17T11:07:20;13.60;99.90
39019;DHT22;24786;51.984;5.872;2022-09-17T11:12:27;13.90;99.90
39019;DHT22;24786;51.984;5.872;2022-09-17T11:15:13;14.00;99.90
39019;DHT22;24786;51.984;5.872;2022-09-17T11:18:12;14.20;99.90
39019;DHT22;24786;51.984;5.872;2022-09-17T11:23:59;14.50;99.90
39019;DHT22;24786;51.984;5.872;2022-09-17T11:26:34;14.40;99.90
39019;DHT22;24786;51.984;5.872;2022-09-17T11:32:00;14.50;99.90
39019;DHT22;24786;51.984;5.872;2022-09-17T11:35:07;14.60;99.90
39019;DHT22;24786;51.984;5.872;2022-09-17T11:37:45;14.80;99.90
39019;DHT22;24786;51.984;5.872;2022-09-17T11:40:34;14.90;99.90
39019;DHT22;24786;51.984;5.872;2022-09-17T11:43:41;14.90;99.90
39019;DHT22;24786;51.984;5.872;2022-09-17T11:46:36;14.90;99.90
39019;DHT22;24786;51.984;5.872;2022-09-17T11:57:46;15.40;99.90
39019;DHT22;24786;51.984;5.872;2022-09-17T12:00:22;15.60;99.90
39019;DHT22;24786;51.984;5.872;2022-09-17T12:05:39;15.80;99.90
39019;DHT22;24786;51.984;5.872;2022-09-17T12:08:28;15.80;99.90
39019;DHT22;24786;51.984;5.872;2022-09-17T12:11:26;15.70;99.80
39019;DHT22;24786;51.984;5.872;2022-09-17T12:14:04;15.50;99.70
39019;DHT22;24786;51.984;5.872;2022-09-17T12:16:36;15.40;99.90
39019;DHT22;24786;51.984;5.872;2022-09-17T12:19:21;15.40;99.90
39019;DHT22;24786;51.984;5.872;2022-09-17T12:24:29;14.70;99.90
39019;DHT22;24786;51.984;5.872;2022-09-17T12:27:11;14.50;99.90
39019;DHT22;24786;51.984;5.872;2022-09-17T12:44:02;14.40;99.90
39019;DHT22;24786;51.984;5.872;2022-09-17T12:52:05;14.80;99.90
39019;DHT22;24786;51.984;5.872;2022-09-17T12:59:58;14.60;99.90
39019;DHT22;24786;51.984;5.872;2022-09-17T13:02:37;14.60;99.90
39019;DHT22;24786;51.984;5.872;2022-09-17T13:05:59;14.70;99.90
39019;DHT22;24786;51.984;5.872;2022-09-17T13:11:33;14.80;99.90
39019;DHT22;24786;51.984;5.872;2022-09-17T13:17:04;15.10;99.90
39019;DHT22;24786;51.984;5.872;2022-09-17T13:19:43;15.00;99.90
39019;DHT22;24786;51.984;5.872;2022-09-17T13:22:19;15.00;99.90
39019;DHT22;24786;51.984;5.872;2022-09-17T13:24:47;15.00;99.90
39019;DHT22;24786;51.984;5.872;2022-09-17T13:27:25;15.00;99.90
39019;DHT22;24786;51.984;5.872;2022-09-17T13:37:57;14.80;99.50
39019;DHT22;24786;51.984;5.872;2022-09-17T13:40:34;14.90;99.00
39019;DHT22;24786;51.984;5.872;2022-09-17T13:45:28;15.00;98.90
39019;DHT22;24786;51.984;5.872;2022-09-17T13:48:08;14.80;98.80
39019;DHT22;24786;51.984;5.872;2022-09-17T13:50:42;14.80;98.70
39019;DHT22;24786;51.984;5.872;2022-09-17T13:55:44;14.50;98.90
39019;DHT22;24786;51.984;5.872;2022-09-17T13:58:39;14.60;99.10
39019;DHT22;24786;51.984;5.872;2022-09-17T14:13:57;15.20;98.60
39019;DHT22;24786;51.984;5.872;2022-09-17T14:24:28;14.60;99.80
39019;DHT22;24786;51.984;5.872;2022-09-17T14:27:44;14.50;99.90
39019;DHT22;24786;51.984;5.872;2022-09-17T14:30:14;14.40;99.90
39019;DHT22;24786;51.984;5.872;2022-09-17T14:35:32;14.30;99.90
39019;DHT22;24786;51.984;5.872;2022-09-17T14:41:00;14.50;99.90
39019;DHT22;24786;51.984;5.872;2022-09-17T14:46:33;14.60;99.90
39019;DHT22;24786;51.984;5.872;2022-09-17T14:49:35;14.70;99.90
39019;DHT22;24786;51.984;5.872;2022-09-17T14:52:26;14.80;99.70
39019;DHT22;24786;51.984;5.872;2022-09-17T14:55:21;14.90;99.70
39019;DHT22;24786;51.984;5.872;2022-09-17T14:57:56;14.90;99.70
39019;DHT22;24786;51.984;5.872;2022-09-17T15:00:34;14.80;99.60
39019;DHT22;24786;51.984;5.872;2022-09-17T15:02:59;14.90;99.20
39019;DHT22;24786;51.984;5.872;2022-09-17T15:05:29;14.90;98.70
39019;DHT22;24786;51.984;5.872;2022-09-17T15:10:52;14.80;98.20
39019;DHT22;24786;51.984;5.872;2022-09-17T15:13:25;14.90;98.00
39019;DHT22;24786;51.984;5.872;2022-09-17T15:16:11;14.90;98.10
39019;DHT22;24786;51.984;5.872;2022-09-17T15:18:41;14.90;98.00
39019;DHT22;24786;51.984;5.872;2022-09-17T15:21:30;15.00;97.80
39019;DHT22;24786;51.984;5.872;2022-09-17T15:26:48;15.20;97.40
39019;DHT22;24786;51.984;5.872;2022-09-17T15:29:22;15.20;97.30
39019;DHT22;24786;51.984;5.872;2022-09-17T15:31:48;15.00;97.40
39019;DHT22;24786;51.984;5.872;2022-09-17T15:34:14;15.00;97.60
39019;DHT22;24786;51.984;5.872;2022-09-17T15:36:39;14.90;97.60
39019;DHT22;24786;51.984;5.872;2022-09-17T15:39:28;14.90;97.70
39019;DHT22;24786;51.984;5.872;2022-09-17T15:41:55;14.90;97.70
39019;DHT22;24786;51.984;5.872;2022-09-17T15:44:25;14.70;97.90
39019;DHT22;24786;51.984;5.872;2022-09-17T15:46:52;14.60;98.20
39019;DHT22;24786;51.984;5.872;2022-09-17T15:49:31;14.40;98.50
39019;DHT22;24786;51.984;5.872;2022-09-17T15:52:23;14.20;98.80
39019;DHT22;24786;51.984;5.872;2022-09-17T15:54:52;14.00;99.00
39019;DHT22;24786;51.984;5.872;2022-09-17T15:57:20;13.80;99.20
39019;DHT22;24786;51.984;5.872;2022-09-17T15:59:46;13.80;99.40
39019;DHT22;24786;51.984;5.872;2022-09-17T16:02:30;13.70;99.50
39019;DHT22;24786;51.984;5.872;2022-09-17T16:07:41;13.60;99.70
39019;DHT22;24786;51.984;5.872;2022-09-17T16:10:08;13.60;99.70
39019;DHT22;24786;51.984;5.872;2022-09-17T16:12:34;13.60;99.80
39019;DHT22;24786;51.984;5.872;2022-09-17T16:15:00;13.60;99.90
39019;DHT22;24786;51.984;5.872;2022-09-17T16:17:46;13.60;99.90
39019;DHT22;24786;51.984;5.872;2022-09-17T16:20:18;13.60;99.90
39019;DHT22;24786;51.984;5.872;2022-09-17T16:22:45;13.50;99.90
39019;DHT22;24786;51.984;5.872;2022-09-17T16:25:18;13.60;99.90
39019;DHT22;24786;51.984;5.872;2022-09-17T16:27:55;13.50;99.90
39019;DHT22;24786;51.984;5.872;2022-09-17T16:30:22;13.50;99.90
39019;DHT22;24786;51.984;5.872;2022-09-17T16:32:49;13.60;99.90
39019;DHT22;24786;51.984;5.872;2022-09-17T16:35:20;13.60;99.90
39019;DHT22;24786;51.984;5.872;2022-09-17T16:37:50;13.50;99.90
39019;DHT22;24786;51.984;5.872;2022-09-17T16:40:16;13.50;99.90
39019;DHT22;24786;51.984;5.872;2022-09-17T16:42:42;13.40;99.90
39019;DHT22;24786;51.984;5.872;2022-09-17T16:45:08;13.50;99.90
39019;DHT22;24786;51.984;5.872;2022-09-17T16:47:39;13.40;99.90
39019;DHT22;24786;51.984;5.872;2022-09-17T16:50:07;13.40;99.90
39019;DHT22;24786;51.984;5.872;2022-09-17T16:52:34;13.40;99.90
39019;DHT22;24786;51.984;5.872;2022-09-17T16:54:59;13.40;99.90
39019;DHT22;24786;51.984;5.872;2022-09-17T16:57:25;13.50;99.90
39019;DHT22;24786;51.984;5.872;2022-09-17T16:59:51;13.50;99.90
39019;DHT22;24786;51.984;5.872;2022-09-17T17:02:16;13.40;99.80
39019;DHT22;24786;51.984;5.872;2022-09-17T17:04:42;13.50;99.80
39019;DHT22;24786;51.984;5.872;2022-09-17T17:07:07;13.40;99.70
39019;DHT22;24786;51.984;5.872;2022-09-17T17:09:33;13.50;99.70
39019;DHT22;24786;51.984;5.872;2022-09-17T17:11:58;13.50;99.60
39019;DHT22;24786;51.984;5.872;2022-09-17T17:14:24;13.50;99.60
39019;DHT22;24786;51.984;5.872;2022-09-17T17:16:49;13.50;99.70
39019;DHT22;24786;51.984;5.872;2022-09-17T17:19:16;13.50;99.70
39019;DHT22;24786;51.984;5.872;2022-09-17T17:21:42;13.50;99.70
39019;DHT22;24786;51.984;5.872;2022-09-17T17:24:07;13.50;99.70
39019;DHT22;24786;51.984;5.872;2022-09-17T17:26:34;13.50;99.60
39019;DHT22;24786;51.984;5.872;2022-09-17T17:28:59;13.40;99.60
39019;DHT22;24786;51.984;5.872;2022-09-17T17:31:27;13.40;99.70
39019;DHT22;24786;51.984;5.872;2022-09-17T17:33:52;13.40;99.80
39019;DHT22;24786;51.984;5.872;2022-09-17T17:36:18;13.40;99.90
39019;DHT22;24786;51.984;5.872;2022-09-17T17:38:43;13.50;99.90
39019;DHT22;24786;51.984;5.872;2022-09-17T17:41:11;13.40;99.90
39019;DHT22;24786;51.984;5.872;2022-09-17T17:43:37;13.40;99.90
39019;DHT22;24786;51.984;5.872;2022-09-17T17:46:08;13.40;99.90
39019;DHT22;24786;51.984;5.872;2022-09-17T17:48:34;13.40;99.90
39019;DHT22;24786;51.984;5.872;2022-09-17T17:51:02;13.30;99.90
39019;DHT22;24786;51.984;5.872;2022-09-17T17:53:28;13.30;99.90
39019;DHT22;24786;51.984;5.872;2022-09-17T17:55:55;13.20;99.90
39019;DHT22;24786;51.984;5.872;2022-09-17T17:58:22;13.20;99.90
39019;DHT22;24786;51.984;5.872;2022-09-17T18:00:47;13.20;99.90
39019;DHT22;24786;51.984;5.872;2022-09-17T18:03:13;13.10;99.90
39019;DHT22;24786;51.984;5.872;2022-09-17T18:05:39;13.00;99.90
39019;DHT22;24786;51.984;5.872;2022-09-17T18:08:04;13.10;99.90
39019;DHT22;24786;51.984;5.872;2022-09-17T18:10:30;12.90;99.90
39019;DHT22;24786;51.984;5.872;2022-09-17T18:12:55;12.90;99.90
39019;DHT22;24786;51.984;5.872;2022-09-17T18:15:21;12.80;99.90
39019;DHT22;24786;51.984;5.872;2022-09-17T18:17:46;12.80;99.90
39019;DHT22;24786;51.984;5.872;2022-09-17T18:20:14;12.80;99.90
39019;DHT22;24786;51.984;5.872;2022-09-17T18:22:40;12.70;99.90
39019;DHT22;24786;51.984;5.872;2022-09-17T18:25:06;12.70;99.90
39019;DHT22;24786;51.984;5.872;2022-09-17T18:27:32;12.70;99.90
39019;DHT22;24786;51.984;5.872;2022-09-17T18:29:57;12.70;99.90
39019;DHT22;24786;51.984;5.872;2022-09-17T18:32:23;12.70;99.90
39019;DHT22;24786;51.984;5.872;2022-09-17T18:34:48;12.60;99.90
39019;DHT22;24786;51.984;5.872;2022-09-17T18:37:14;12.60;99.90
39019;DHT22;24786;51.984;5.872;2022-09-17T18:39:40;12.60;99.90
39019;DHT22;24786;51.984;5.872;2022-09-17T18:42:06;12.50;99.90
39019;DHT22;24786;51.984;5.872;2022-09-17T18:44:31;12.50;99.90
39019;DHT22;24786;51.984;5.872;2022-09-17T18:46:57;12.50;99.90
39019;DHT22;24786;51.984;5.872;2022-09-17T18:49:23;12.50;99.90
39019;DHT22;24786;51.984;5.872;2022-09-17T18:51:48;12.40;99.90
39019;DHT22;24786;51.984;5.872;2022-09-17T18:54:14;12.50;99.90
39019;DHT22;24786;51.984;5.872;2022-09-17T18:56:40;12.40;99.90
39019;DHT22;24786;51.984;5.872;2022-09-17T18:59:06;12.40;99.90
39019;DHT22;24786;51.984;5.872;2022-09-17T19:01:31;12.40;99.90
39019;DHT22;24786;51.984;5.872;2022-09-17T19:03:58;12.40;99.90
39019;DHT22;24786;51.984;5.872;2022-09-17T19:06:25;12.30;99.90